createdAt,value
2018-05-03T00:00:57.555Z,73.83
2018-05-03T00:01:57.476Z,73.92
2018-05-03T00:02:57.362Z,73.73
2018-05-03T00:03:57.260Z,74.02
2018-05-03T00:04:57.172Z,74.02
2018-05-03T00:05:57.063Z,73.83
2018-05-03T00:06:56.974Z,74.02
2018-05-03T00:07:56.871Z,74.02
2018-05-03T00:08:56.778Z,74.11
2018-05-03T00:09:56.676Z,73.63
2018-05-03T00:10:56.585Z,73.63
2018-05-03T00:11:56.482Z,74.21
2018-05-03T00:12:56.391Z,73.63
2018-05-03T00:13:56.287Z,73.44
2018-05-03T00:14:56.197Z,74.02
2018-05-03T00:15:56.094Z,73.83
2018-05-03T00:16:56.003Z,73.92
2018-05-03T00:17:55.899Z,73.88
2018-05-03T00:18:55.809Z,73.60
2018-05-03T00:19:55.707Z,73.50
2018-05-03T00:20:55.614Z,73.50
2018-05-03T00:21:55.511Z,73.98
2018-05-03T00:22:55.421Z,73.60
2018-05-03T00:23:55.317Z,73.32
2018-05-03T00:24:55.226Z,73.60
2018-05-03T00:25:55.123Z,73.88
2018-05-03T00:26:55.035Z,73.50
2018-05-03T00:27:54.929Z,73.22
2018-05-03T00:28:54.839Z,73.50
2018-05-03T00:29:54.734Z,73.50
2018-05-03T00:30:54.643Z,73.32
2018-05-03T00:31:54.540Z,73.88
2018-05-03T00:32:54.449Z,73.88
2018-05-03T00:33:54.346Z,73.98
2018-05-03T00:34:54.259Z,73.79
2018-05-03T00:35:54.154Z,73.32
2018-05-03T00:36:54.061Z,73.22
2018-05-03T00:37:53.959Z,73.32
2018-05-03T00:38:53.869Z,73.22
2018-05-03T00:39:53.766Z,73.50
2018-05-03T00:40:53.672Z,73.98
2018-05-03T00:41:53.570Z,73.50
2018-05-03T00:42:53.479Z,73.22
2018-05-03T00:43:53.376Z,73.32
2018-05-03T00:44:53.284Z,73.50
2018-05-03T00:45:53.182Z,73.12
2018-05-03T00:46:53.094Z,73.79
2018-05-03T00:47:52.989Z,73.32
2018-05-03T00:48:52.897Z,73.60
2018-05-03T00:49:52.793Z,73.12
2018-05-03T00:50:52.703Z,73.41
2018-05-03T00:51:52.600Z,72.93
2018-05-03T00:52:52.511Z,73.03
2018-05-03T00:53:52.405Z,73.03
2018-05-03T00:54:52.315Z,73.32
2018-05-03T00:55:52.211Z,72.45
2018-05-03T00:56:52.119Z,73.22
2018-05-03T00:57:52.016Z,73.22
2018-05-03T00:58:51.926Z,73.41
2018-05-03T00:59:51.826Z,73.22
2018-05-03T01:00:51.731Z,73.41
2018-05-03T01:01:51.927Z,73.18
2018-05-03T01:02:51.538Z,73.75
2018-05-03T01:03:51.435Z,72.89
2018-05-03T01:04:51.343Z,72.89
2018-05-03T01:05:51.239Z,73.18
2018-05-03T01:06:51.149Z,73.28
2018-05-03T01:07:51.047Z,72.89
2018-05-03T01:08:50.968Z,73.08
2018-05-03T01:09:50.854Z,72.89
2018-05-03T01:10:50.761Z,72.89
2018-05-03T01:11:50.658Z,73.08
2018-05-03T01:12:50.567Z,73.08
2018-05-03T01:13:50.463Z,72.89
2018-05-03T01:14:50.374Z,73.56
2018-05-03T01:15:50.269Z,73.28
2018-05-03T01:16:50.178Z,73.08
2018-05-03T01:17:50.077Z,73.28
2018-05-03T01:18:49.985Z,73.18
2018-05-03T01:19:49.882Z,73.08
2018-05-03T01:20:49.779Z,72.99
2018-05-03T01:21:49.700Z,72.89
2018-05-03T01:22:49.600Z,72.89
2018-05-03T01:23:49.494Z,73.08
2018-05-03T01:24:49.390Z,72.89
2018-05-03T01:25:49.298Z,72.99
2018-05-03T01:26:49.194Z,73.08
2018-05-03T01:27:49.105Z,73.08
2018-05-03T01:28:49.002Z,72.89
2018-05-03T01:29:48.915Z,72.80
2018-05-03T01:30:48.807Z,72.80
2018-05-03T01:31:48.717Z,72.89
2018-05-03T01:32:48.614Z,72.89
2018-05-03T01:33:48.522Z,73.28
2018-05-03T01:34:48.420Z,72.89
2018-05-03T01:35:48.338Z,72.71
2018-05-03T01:36:48.226Z,72.99
2018-05-03T01:37:48.133Z,73.18
2018-05-03T01:38:48.031Z,73.28
2018-05-03T01:39:47.928Z,72.99
2018-05-03T01:40:47.837Z,72.89
2018-05-03T01:41:47.733Z,73.18
2018-05-03T01:42:47.642Z,72.71
2018-05-03T01:43:47.552Z,72.89
2018-05-03T01:44:47.453Z,72.89
2018-05-03T01:45:47.345Z,72.80
2018-05-03T01:46:47.254Z,73.18
2018-05-03T01:47:47.151Z,72.99
2018-05-03T01:48:47.061Z,72.89
2018-05-03T01:49:46.960Z,72.61
2018-05-03T01:50:46.866Z,72.71
2018-05-03T01:51:46.762Z,72.71
2018-05-03T01:52:46.660Z,72.71
2018-05-03T01:53:46.569Z,72.71
2018-05-03T01:54:46.466Z,73.37
2018-05-03T01:55:46.388Z,72.89
2018-05-03T01:56:46.271Z,72.96
2018-05-03T01:57:46.180Z,72.96
2018-05-03T01:58:46.080Z,73.18
2018-05-03T01:59:45.986Z,72.99
2018-05-03T02:00:45.883Z,73.05
2018-05-03T02:01:46.092Z,73.37
2018-05-03T02:02:45.689Z,72.96
2018-05-03T02:03:45.597Z,73.08
2018-05-03T02:04:45.498Z,72.96
2018-05-03T02:05:45.392Z,73.05
2018-05-03T02:06:45.303Z,72.86
2018-05-03T02:07:45.197Z,73.14
2018-05-03T02:08:45.106Z,73.14
2018-05-03T02:09:45.003Z,72.86
2018-05-03T02:10:44.916Z,73.14
2018-05-03T02:11:44.811Z,73.14
2018-05-03T02:12:44.718Z,73.18
2018-05-03T02:13:44.615Z,72.76
2018-05-03T02:14:44.539Z,72.99
2018-05-03T02:15:44.421Z,73.14
2018-05-03T02:16:44.323Z,73.14
2018-05-03T02:17:44.228Z,73.14
2018-05-03T02:18:44.136Z,73.05
2018-05-03T02:19:44.032Z,73.24
2018-05-03T02:20:43.930Z,73.24
2018-05-03T02:21:43.839Z,72.86
2018-05-03T02:22:43.734Z,73.05
2018-05-03T02:23:43.645Z,72.96
2018-05-03T02:24:43.541Z,72.67
2018-05-03T02:25:43.438Z,73.14
2018-05-03T02:26:43.347Z,73.43
2018-05-03T02:27:43.243Z,73.24
2018-05-03T02:28:43.155Z,73.14
2018-05-03T02:29:43.050Z,73.72
2018-05-03T02:30:42.959Z,73.14
2018-05-03T02:31:42.869Z,72.96
2018-05-03T02:32:42.753Z,72.96
2018-05-03T02:33:42.662Z,73.24
2018-05-03T02:34:42.558Z,73.14
2018-05-03T02:35:42.470Z,73.24
2018-05-03T02:36:42.373Z,72.57
2018-05-03T02:37:42.273Z,73.14
2018-05-03T02:38:42.171Z,72.96
2018-05-03T02:39:42.078Z,73.14
2018-05-03T02:40:41.978Z,73.33
2018-05-03T02:41:41.879Z,73.72
2018-05-03T02:42:41.782Z,72.96
2018-05-03T02:43:41.679Z,73.05
2018-05-03T02:44:41.589Z,72.96
2018-05-03T02:45:41.487Z,72.67
2018-05-03T02:46:41.395Z,73.14
2018-05-03T02:47:41.290Z,72.96
2018-05-03T02:48:41.190Z,73.33
2018-05-03T02:49:41.096Z,73.52
2018-05-03T02:50:40.993Z,73.72
2018-05-03T02:51:40.903Z,73.62
2018-05-03T02:52:40.798Z,73.05
2018-05-03T02:53:40.707Z,73.62
2018-05-03T02:54:40.604Z,74.01
2018-05-03T02:55:40.503Z,73.72
2018-05-03T02:56:40.411Z,73.28
2018-05-03T02:57:40.308Z,73.72
2018-05-03T02:58:40.216Z,73.24
2018-05-03T02:59:40.113Z,73.43
2018-05-03T03:00:40.024Z,73.05
2018-05-03T03:01:39.919Z,72.96
2018-05-03T03:02:39.817Z,74.10
2018-05-03T03:03:39.728Z,73.24
2018-05-03T03:04:39.621Z,73.33
2018-05-03T03:05:39.532Z,73.05
2018-05-03T03:06:39.428Z,73.43
2018-05-03T03:07:39.336Z,73.24
2018-05-03T03:08:39.233Z,72.96
2018-05-03T03:09:39.135Z,73.05
2018-05-03T03:10:39.043Z,73.24
2018-05-03T03:11:38.937Z,72.96
2018-05-03T03:12:38.844Z,73.24
2018-05-03T03:13:38.741Z,73.33
2018-05-03T03:14:38.652Z,73.24
2018-05-03T03:15:38.548Z,73.81
2018-05-03T03:16:38.444Z,73.14
2018-05-03T03:17:38.353Z,73.14
2018-05-03T03:18:38.251Z,73.05
2018-05-03T03:19:38.160Z,73.05
2018-05-03T03:20:38.056Z,73.05
2018-05-03T03:21:37.965Z,73.14
2018-05-03T03:22:37.861Z,73.62
2018-05-03T03:23:37.758Z,73.81
2018-05-03T03:24:37.668Z,73.24
2018-05-03T03:25:37.564Z,73.14
2018-05-03T03:26:37.473Z,72.86
2018-05-03T03:27:37.369Z,73.14
2018-05-03T03:28:37.268Z,73.68
2018-05-03T03:29:37.178Z,73.62
2018-05-03T03:30:37.077Z,73.14
2018-05-03T03:31:36.982Z,73.01
2018-05-03T03:32:36.879Z,72.63
2018-05-03T03:33:36.788Z,73.39
2018-05-03T03:34:36.685Z,73.21
2018-05-03T03:35:36.582Z,73.30
2018-05-03T03:36:36.490Z,73.30
2018-05-03T03:37:36.387Z,73.77
2018-05-03T03:38:36.298Z,73.39
2018-05-03T03:39:36.189Z,73.49
2018-05-03T03:40:36.107Z,73.39
2018-05-03T03:41:36.012Z,73.49
2018-05-03T03:42:35.895Z,73.39
2018-05-03T03:43:35.805Z,73.11
2018-05-03T03:44:35.701Z,73.11
2018-05-03T03:45:35.610Z,73.01
2018-05-03T03:46:35.508Z,72.82
2018-05-03T03:47:35.419Z,72.82
2018-05-03T03:48:35.314Z,73.68
2018-05-03T03:49:35.212Z,73.68
2018-05-03T03:50:35.119Z,73.01
2018-05-03T03:51:35.015Z,73.01
2018-05-03T03:52:34.912Z,73.26
2018-05-03T03:53:34.825Z,72.88
2018-05-03T03:54:34.718Z,73.07
2018-05-03T03:55:34.618Z,72.50
2018-05-03T03:56:34.523Z,72.88
2018-05-03T03:57:34.424Z,72.78
2018-05-03T03:58:34.329Z,72.78
2018-05-03T03:59:34.226Z,73.26
2018-05-03T04:00:34.126Z,72.88
2018-05-03T04:01:34.032Z,72.78
2018-05-03T04:02:33.929Z,73.45
2018-05-03T04:03:33.824Z,73.74
2018-05-03T04:04:33.735Z,72.78
2018-05-03T04:05:33.631Z,72.41
2018-05-03T04:06:33.540Z,73.26
2018-05-03T04:07:33.437Z,73.74
2018-05-03T04:08:33.333Z,73.17
2018-05-03T04:09:33.245Z,72.78
2018-05-03T04:10:33.140Z,73.65
2018-05-03T04:11:33.039Z,73.55
2018-05-03T04:12:32.945Z,73.45
2018-05-03T04:13:32.843Z,73.17
2018-05-03T04:14:32.752Z,73.26
2018-05-03T04:15:32.648Z,73.26
2018-05-03T04:16:32.545Z,73.36
2018-05-03T04:17:32.454Z,73.07
2018-05-03T04:18:32.351Z,73.74
2018-05-03T04:19:32.247Z,73.93
2018-05-03T04:20:32.157Z,73.74
2018-05-03T04:21:32.055Z,73.49
2018-05-03T04:22:31.977Z,73.77
2018-05-03T04:23:31.858Z,73.77
2018-05-03T04:24:31.759Z,73.77
2018-05-03T04:25:31.668Z,73.30
2018-05-03T04:26:31.562Z,73.39
2018-05-03T04:27:31.458Z,73.11
2018-05-03T04:28:31.371Z,73.21
2018-05-03T04:29:31.265Z,73.58
2018-05-03T04:30:31.168Z,73.43
2018-05-03T04:31:31.071Z,73.52
2018-05-03T04:32:30.968Z,73.52
2018-05-03T04:33:30.876Z,73.24
2018-05-03T04:34:30.846Z,73.14
2018-05-03T04:35:30.669Z,73.14
2018-05-03T04:36:30.583Z,73.43
2018-05-03T04:37:30.476Z,72.96
2018-05-03T04:38:30.384Z,72.96
2018-05-03T04:39:30.281Z,73.52
2018-05-03T04:40:30.179Z,73.81
2018-05-03T04:41:30.088Z,72.96
2018-05-03T04:42:29.986Z,72.96
2018-05-03T04:43:29.895Z,73.14
2018-05-03T04:44:29.790Z,72.89
2018-05-03T04:45:29.688Z,73.56
2018-05-03T04:46:29.596Z,73.28
2018-05-03T04:47:29.494Z,73.28
2018-05-03T04:48:29.401Z,73.28
2018-05-03T04:49:29.298Z,73.18
2018-05-03T04:50:29.208Z,73.18
2018-05-03T04:51:29.104Z,73.18
2018-05-03T04:52:29.001Z,73.08
2018-05-03T04:53:28.910Z,72.99
2018-05-03T04:54:28.806Z,73.18
2018-05-03T04:55:28.718Z,72.71
2018-05-03T04:56:28.613Z,73.08
2018-05-03T04:57:28.526Z,73.28
2018-05-03T04:58:28.417Z,73.08
2018-05-03T04:59:28.316Z,72.89
2018-05-03T05:00:28.225Z,73.08
2018-05-03T05:01:28.122Z,72.89
2018-05-03T05:02:28.030Z,73.18
2018-05-03T05:03:27.928Z,73.28
2018-05-03T05:04:27.836Z,73.28
2018-05-03T05:05:27.733Z,73.28
2018-05-03T05:06:27.641Z,72.89
2018-05-03T05:07:27.538Z,72.80
2018-05-03T05:08:27.436Z,73.32
2018-05-03T05:09:27.345Z,72.74
2018-05-03T05:10:27.272Z,72.93
2018-05-03T05:11:27.150Z,72.93
2018-05-03T05:12:27.047Z,73.32
2018-05-03T05:13:26.957Z,72.93
2018-05-03T05:14:26.854Z,73.60
2018-05-03T05:15:26.761Z,72.64
2018-05-03T05:16:26.658Z,73.16
2018-05-03T05:17:26.569Z,73.25
2018-05-03T05:18:26.465Z,73.44
2018-05-03T05:19:26.373Z,72.87
2018-05-03T05:20:26.270Z,73.07
2018-05-03T05:21:26.180Z,73.07
2018-05-03T05:22:26.078Z,72.87
2018-05-03T05:23:25.985Z,73.07
2018-05-03T05:24:25.883Z,72.87
2018-05-03T05:25:25.793Z,73.16
2018-05-03T05:26:25.696Z,73.16
2018-05-03T05:27:25.597Z,72.87
2018-05-03T05:28:25.494Z,73.07
2018-05-03T05:29:25.403Z,73.07
2018-05-03T05:30:25.300Z,72.91
2018-05-03T05:31:25.210Z,73.00
2018-05-03T05:32:25.105Z,73.00
2018-05-03T05:33:25.016Z,72.81
2018-05-03T05:34:24.912Z,72.72
2018-05-03T05:35:24.821Z,72.53
2018-05-03T05:36:24.717Z,72.91
2018-05-03T05:37:24.627Z,72.81
2018-05-03T05:38:24.602Z,72.91
2018-05-03T05:39:24.433Z,72.91
2018-05-03T05:40:24.329Z,72.24
2018-05-03T05:41:24.239Z,72.91
2018-05-03T05:42:24.147Z,73.39
2018-05-03T05:43:24.044Z,73.00
2018-05-03T05:44:24.033Z,73.23
2018-05-03T05:45:23.896Z,73.23
2018-05-03T05:46:23.759Z,73.23
2018-05-03T05:47:23.665Z,72.88
2018-05-03T05:48:23.566Z,72.88
2018-05-03T05:49:23.463Z,72.79
2018-05-03T05:50:23.371Z,73.11
2018-05-03T05:51:23.281Z,72.92
2018-05-03T05:52:23.181Z,72.44
2018-05-03T05:53:23.085Z,72.83
2018-05-03T05:54:22.984Z,73.34
2018-05-03T05:55:22.891Z,72.48
2018-05-03T05:56:22.816Z,72.67
2018-05-03T05:57:22.698Z,72.16
2018-05-03T05:58:22.608Z,72.06
2018-05-03T05:59:22.516Z,73.21
2018-05-03T06:00:22.413Z,72.67
2018-05-03T06:01:22.323Z,72.96
2018-05-03T06:02:22.231Z,72.25
2018-05-03T06:03:22.128Z,72.73
2018-05-03T06:04:22.103Z,72.25
2018-05-03T06:05:21.947Z,72.34
2018-05-03T06:06:21.845Z,72.44
2018-05-03T06:07:21.759Z,71.77
2018-05-03T06:08:21.661Z,72.25
2018-05-03T06:09:21.572Z,72.41
2018-05-03T06:10:21.471Z,73.36
2018-05-03T06:11:21.376Z,72.22
2018-05-03T06:12:21.316Z,72.22
2018-05-03T06:13:21.182Z,72.79
2018-05-03T06:14:21.092Z,72.31
2018-05-03T06:15:21.001Z,72.50
2018-05-03T06:16:20.898Z,72.60
2018-05-03T06:17:20.806Z,72.12
2018-05-03T06:18:20.717Z,72.63
2018-05-03T06:19:20.629Z,72.73
2018-05-03T06:20:20.521Z,72.31
2018-05-03T06:21:20.431Z,72.54
2018-05-03T06:22:20.339Z,72.44
2018-05-03T06:23:20.236Z,72.54
2018-05-03T06:24:20.148Z,71.97
2018-05-03T06:25:20.055Z,72.63
2018-05-03T06:26:19.964Z,72.73
2018-05-03T06:27:19.861Z,72.16
2018-05-03T06:28:19.770Z,71.77
2018-05-03T06:29:19.683Z,72.63
2018-05-03T06:30:19.577Z,72.25
2018-05-03T06:31:19.487Z,71.58
2018-05-03T06:32:19.394Z,72.29
2018-05-03T06:33:19.304Z,72.19
2018-05-03T06:34:19.200Z,72.32
2018-05-03T06:35:19.109Z,71.31
2018-05-03T06:36:19.018Z,70.83
2018-05-03T06:37:18.918Z,71.21
2018-05-03T06:38:18.825Z,71.27
2018-05-03T06:39:18.733Z,71.37
2018-05-03T06:40:18.643Z,70.98
2018-05-03T06:41:18.553Z,70.98
2018-05-03T06:42:18.449Z,71.37
2018-05-03T06:43:18.359Z,71.27
2018-05-03T06:44:18.267Z,71.27
2018-05-03T06:45:18.256Z,71.27
2018-05-03T06:46:18.085Z,71.52
2018-05-03T06:47:17.982Z,71.23
2018-05-03T06:48:17.898Z,72.09
2018-05-03T06:49:17.803Z,72.09
2018-05-03T06:50:17.710Z,71.62
2018-05-03T06:51:17.607Z,72.29
2018-05-03T06:52:17.515Z,72.29
2018-05-03T06:53:17.425Z,72.09
2018-05-03T06:54:17.333Z,71.97
2018-05-03T06:55:17.244Z,71.87
2018-05-03T06:56:17.141Z,72.34
2018-05-03T06:57:17.049Z,72.44
2018-05-03T06:58:16.959Z,72.44
2018-05-03T06:59:16.868Z,72.54
2018-05-03T07:00:16.779Z,72.34
2018-05-03T07:01:16.674Z,72.69
2018-05-03T07:02:16.582Z,72.12
2018-05-03T07:03:16.493Z,72.34
2018-05-03T07:04:16.533Z,72.41
2018-05-03T07:05:16.296Z,72.50
2018-05-03T07:06:16.210Z,72.69
2018-05-03T07:07:16.116Z,72.50
2018-05-03T07:08:16.014Z,72.50
2018-05-03T07:09:15.922Z,72.69
2018-05-03T07:10:15.831Z,72.60
2018-05-03T07:11:15.741Z,72.60
2018-05-03T07:12:15.642Z,72.79
2018-05-03T07:13:15.546Z,72.41
2018-05-03T07:14:15.456Z,72.98
2018-05-03T07:15:15.379Z,72.98
2018-05-03T07:16:15.329Z,72.60
2018-05-03T07:17:15.171Z,72.79
2018-05-03T07:18:15.079Z,72.50
2018-05-03T07:19:14.976Z,72.41
2018-05-03T07:20:14.890Z,72.83
2018-05-03T07:21:14.794Z,72.34
2018-05-03T07:22:14.708Z,72.25
2018-05-03T07:23:14.608Z,72.34
2018-05-03T07:24:14.511Z,71.97
2018-05-03T07:25:14.419Z,72.06
2018-05-03T07:26:14.316Z,72.16
2018-05-03T07:27:14.225Z,72.09
2018-05-03T07:28:14.135Z,72.29
2018-05-03T07:29:14.036Z,71.52
2018-05-03T07:30:13.942Z,72.38
2018-05-03T07:31:13.850Z,72.38
2018-05-03T07:32:13.759Z,72.19
2018-05-03T07:33:13.668Z,71.81
2018-05-03T07:34:13.565Z,72.29
2018-05-03T07:35:13.476Z,71.71
2018-05-03T07:36:13.370Z,72.19
2018-05-03T07:37:13.280Z,71.91
2018-05-03T07:38:13.188Z,72.00
2018-05-03T07:39:13.137Z,72.29
2018-05-03T07:40:13.174Z,71.91
2018-05-03T07:41:12.917Z,71.94
2018-05-03T07:42:12.812Z,71.84
2018-05-03T07:43:12.722Z,71.94
2018-05-03T07:44:12.619Z,72.03
2018-05-03T07:45:12.529Z,71.02
2018-05-03T07:46:12.437Z,71.02
2018-05-03T07:47:12.340Z,71.15
2018-05-03T07:48:12.244Z,70.25
2018-05-03T07:49:12.152Z,69.33
2018-05-03T07:50:12.061Z,69.62
2018-05-03T07:51:11.969Z,69.58
2018-05-03T07:52:11.867Z,70.35
2018-05-03T07:53:11.776Z,70.48
2018-05-03T07:54:11.687Z,70.29
2018-05-03T07:55:11.595Z,70.00
2018-05-03T07:56:11.507Z,70.57
2018-05-03T07:57:11.401Z,70.19
2018-05-03T07:58:11.319Z,69.52
2018-05-03T07:59:11.218Z,70.19
2018-05-03T08:00:11.129Z,69.65
2018-05-03T08:01:11.037Z,68.69
2018-05-03T08:02:10.948Z,67.54
2018-05-03T08:03:10.844Z,68.02
2018-05-03T08:04:10.752Z,67.25
2018-05-03T08:05:10.662Z,68.02
2018-05-03T08:06:10.571Z,67.67
2018-05-03T08:07:10.468Z,64.76
2018-05-03T08:08:10.378Z,63.51
2018-05-03T08:09:10.299Z,64.56
2018-05-03T08:10:10.199Z,65.08
2018-05-03T08:11:10.104Z,63.25
2018-05-03T08:12:10.014Z,62.81
2018-05-03T08:13:09.922Z,63.19
2018-05-03T08:14:09.833Z,62.42
2018-05-03T08:15:09.731Z,63.45
2018-05-03T08:16:09.638Z,62.68
2018-05-03T08:17:09.552Z,61.81
2018-05-03T08:18:09.456Z,63.03
2018-05-03T08:19:09.366Z,63.60
2018-05-03T08:20:09.274Z,64.56
2018-05-03T08:21:09.184Z,66.16
2018-05-03T08:22:09.093Z,66.55
2018-05-03T08:23:09.003Z,66.93
2018-05-03T08:24:08.911Z,67.60
2018-05-03T08:25:08.812Z,67.60
2018-05-03T08:26:08.717Z,68.37
2018-05-03T08:27:08.627Z,69.23
2018-05-03T08:28:08.536Z,66.93
2018-05-03T08:29:08.444Z,66.19
2018-05-03T08:30:08.355Z,66.96
2018-05-03T08:31:08.262Z,67.38
2018-05-03T08:32:08.172Z,65.84
2018-05-03T08:33:08.081Z,63.54
2018-05-03T08:34:07.981Z,62.39
2018-05-03T08:35:07.892Z,61.08
2018-05-03T08:36:07.796Z,61.17
2018-05-03T08:37:07.706Z,63.09
2018-05-03T08:38:07.614Z,63.60
2018-05-03T08:39:07.525Z,60.14
2018-05-03T08:40:07.446Z,58.15
2018-05-03T08:41:07.342Z,58.15
2018-05-03T08:42:07.239Z,57.58
2018-05-03T08:43:07.148Z,57.80
2018-05-03T08:44:07.059Z,56.38
2018-05-03T08:45:06.980Z,54.97
2018-05-03T08:46:06.876Z,54.00
2018-05-03T08:47:06.785Z,52.49
2018-05-03T08:48:06.695Z,51.26
2018-05-03T08:49:06.592Z,50.30
2018-05-03T08:50:06.502Z,49.65
2018-05-03T08:51:06.409Z,50.04
2018-05-03T08:52:06.319Z,50.32
2018-05-03T08:53:06.227Z,47.14
2018-05-03T08:54:06.138Z,46.59
2018-05-03T08:55:06.033Z,47.45
2018-05-03T08:56:05.943Z,47.94
2018-05-03T08:57:05.851Z,47.48
2018-05-03T08:58:05.761Z,46.64
2018-05-03T08:59:05.669Z,45.89
2018-05-03T09:00:05.580Z,43.54
2018-05-03T09:01:05.477Z,44.82
2018-05-03T09:02:05.385Z,45.00
2018-05-03T09:03:05.296Z,43.47
2018-05-03T09:04:05.203Z,44.43
2018-05-03T09:05:05.113Z,45.28
2018-05-03T09:06:05.023Z,44.92
2018-05-03T09:07:04.932Z,44.15
2018-05-03T09:08:04.840Z,43.41
2018-05-03T09:09:04.762Z,43.10
2018-05-03T09:10:04.674Z,43.57
2018-05-03T09:11:04.581Z,43.47
2018-05-03T09:12:04.490Z,43.10
2018-05-03T09:13:04.400Z,43.01
2018-05-03T09:14:04.319Z,42.74
2018-05-03T09:15:04.230Z,42.35
2018-05-03T09:16:04.141Z,42.08
2018-05-03T09:17:04.073Z,43.45
2018-05-03T09:18:03.970Z,44.60
2018-05-03T09:19:03.892Z,44.32
2018-05-03T09:20:03.800Z,44.22
2018-05-03T09:21:03.721Z,44.15
2018-05-03T09:22:03.632Z,43.85
2018-05-03T09:23:03.540Z,42.60
2018-05-03T09:24:03.461Z,44.05
2018-05-03T09:25:03.372Z,44.07
2018-05-03T09:26:03.293Z,43.28
2018-05-03T09:27:03.202Z,44.05
2018-05-03T09:28:03.132Z,44.05
2018-05-03T09:29:03.045Z,45.00
2018-05-03T09:30:02.958Z,43.84
2018-05-03T09:31:02.876Z,45.18
2018-05-03T09:32:02.785Z,43.35
2018-05-03T09:33:02.706Z,42.60
2018-05-03T09:34:02.628Z,43.57
2018-05-03T09:35:02.538Z,44.03
2018-05-03T09:36:02.448Z,44.63
2018-05-03T09:37:02.368Z,43.40
2018-05-03T09:38:02.290Z,43.30
2018-05-03T09:39:02.269Z,43.23
2018-05-03T09:40:02.127Z,43.59
2018-05-03T09:41:02.044Z,43.88
2018-05-03T09:42:01.953Z,43.10
2018-05-03T09:43:01.876Z,43.34
2018-05-03T09:44:01.795Z,43.57
2018-05-03T09:45:01.706Z,44.82
2018-05-03T09:46:01.628Z,46.08
2018-05-03T09:47:01.537Z,45.42
2018-05-03T09:48:01.458Z,45.14
2018-05-03T09:49:01.379Z,43.44
2018-05-03T09:50:01.300Z,42.66
2018-05-03T09:51:01.211Z,42.57
2018-05-03T09:52:01.131Z,43.54
2018-05-03T09:53:01.054Z,42.47
2018-05-03T09:54:00.963Z,42.88
2018-05-03T09:55:00.883Z,41.83
2018-05-03T09:56:00.811Z,41.06
2018-05-03T09:57:00.715Z,41.16
2018-05-03T09:58:00.638Z,39.90
2018-05-03T09:59:00.559Z,40.09
2018-05-03T10:00:00.481Z,39.92
2018-05-03T10:01:00.391Z,39.36
2018-05-03T10:02:00.311Z,38.23
2018-05-03T10:03:00.233Z,37.13
2018-05-03T10:04:00.157Z,37.03
2018-05-03T10:05:00.075Z,38.02
2018-05-03T10:05:59.990Z,38.32
2018-05-03T10:06:59.908Z,36.52
2018-05-03T10:07:59.843Z,33.78
2018-05-03T10:08:59.751Z,33.64
2018-05-03T10:09:59.673Z,35.69
2018-05-03T10:10:59.581Z,36.06
2018-05-03T10:11:59.503Z,34.51
2018-05-03T10:12:59.426Z,35.19
2018-05-03T10:13:59.346Z,34.80
2018-05-03T10:14:59.269Z,34.89
2018-05-03T10:15:59.189Z,34.80
2018-05-03T10:16:59.111Z,34.99
2018-05-03T10:17:59.032Z,32.96
2018-05-03T10:18:58.943Z,34.38
2018-05-03T10:19:58.865Z,35.23
2018-05-03T10:20:58.792Z,36.30
2018-05-03T10:21:58.708Z,35.93
2018-05-03T10:22:58.629Z,35.41
2018-05-03T10:23:58.553Z,36.46
2018-05-03T10:24:58.473Z,36.26
2018-05-03T10:25:58.394Z,36.94
2018-05-03T10:26:58.355Z,37.73
2018-05-03T10:27:58.237Z,36.47
2018-05-03T10:28:58.160Z,37.05
2018-05-03T10:29:58.096Z,37.52
2018-05-03T10:30:58.002Z,36.74
2018-05-03T10:31:57.925Z,37.50
2018-05-03T10:32:57.845Z,37.42
2018-05-03T10:33:57.768Z,37.52
2018-05-03T10:34:57.677Z,37.42
2018-05-03T10:35:57.611Z,37.42
2018-05-03T10:36:57.520Z,37.34
2018-05-03T10:37:57.441Z,36.18
2018-05-03T10:38:57.366Z,35.81
2018-05-03T10:39:57.284Z,35.83
2018-05-03T10:40:57.210Z,36.14
2018-05-03T10:41:57.249Z,35.48
2018-05-03T10:42:57.063Z,33.92
2018-05-03T10:43:56.972Z,34.12
2018-05-03T10:44:56.893Z,34.31
2018-05-03T10:45:56.814Z,34.47
2018-05-03T10:46:56.736Z,34.88
2018-05-03T10:47:56.652Z,33.81
2018-05-03T10:48:56.569Z,34.49
2018-05-03T10:49:56.490Z,34.89
2018-05-03T10:50:56.412Z,35.01
2018-05-03T10:51:56.335Z,34.93
2018-05-03T10:52:56.255Z,35.24
2018-05-03T10:53:56.176Z,35.05
2018-05-03T10:54:56.101Z,34.28
2018-05-03T10:55:56.020Z,33.51
2018-05-03T10:56:55.945Z,32.94
2018-05-03T10:57:55.863Z,32.57
2018-05-03T10:58:55.785Z,33.25
2018-05-03T10:59:55.709Z,33.46
2018-05-03T11:00:55.630Z,30.83
2018-05-03T11:01:55.552Z,30.90
2018-05-03T11:02:55.473Z,32.07
2018-05-03T11:03:55.395Z,31.01
2018-05-03T11:04:55.319Z,30.43
2018-05-03T11:05:55.242Z,30.32
2018-05-03T11:06:55.160Z,29.91
2018-05-03T11:07:55.084Z,31.84
2018-05-03T11:08:55.004Z,32.02
2018-05-03T11:09:54.923Z,33.62
2018-05-03T11:10:54.845Z,35.17
2018-05-03T11:11:54.772Z,35.15
2018-05-03T11:12:54.692Z,34.28
2018-05-03T11:13:54.640Z,35.50
2018-05-03T11:14:54.520Z,36.38
2018-05-03T11:15:54.440Z,37.44
2018-05-03T11:16:54.362Z,36.65
2018-05-03T11:17:54.283Z,38.10
2018-05-03T11:18:54.205Z,37.60
2018-05-03T11:19:54.127Z,38.14
2018-05-03T11:20:54.047Z,38.74
2018-05-03T11:21:53.969Z,38.81
2018-05-03T11:22:53.879Z,39.26
2018-05-03T11:23:53.804Z,40.78
2018-05-03T11:24:53.724Z,41.36
2018-05-03T11:25:53.669Z,43.00
2018-05-03T11:26:53.556Z,43.00
2018-05-03T11:27:53.474Z,42.71
2018-05-03T11:28:53.396Z,44.54
2018-05-03T11:29:53.318Z,42.44
2018-05-03T11:30:53.230Z,42.54
2018-05-03T11:31:53.151Z,43.79
2018-05-03T11:32:53.074Z,42.75
2018-05-03T11:33:52.982Z,42.54
2018-05-03T11:34:52.905Z,43.50
2018-05-03T11:35:52.811Z,43.58
2018-05-03T11:36:52.742Z,42.63
2018-05-03T11:37:52.642Z,43.58
2018-05-03T11:38:52.563Z,43.48
2018-05-03T11:39:52.476Z,43.27
2018-05-03T11:40:52.405Z,43.87
2018-05-03T11:41:52.305Z,42.61
2018-05-03T11:42:52.227Z,43.65
2018-05-03T11:43:52.136Z,43.65
2018-05-03T11:44:52.046Z,44.81
2018-05-03T11:45:51.965Z,44.62
2018-05-03T11:46:51.875Z,45.00
2018-05-03T11:47:51.787Z,43.46
2018-05-03T11:48:51.759Z,43.55
2018-05-03T11:49:51.617Z,42.88
2018-05-03T11:50:51.527Z,43.85
2018-05-03T11:51:51.446Z,44.81
2018-05-03T11:52:51.357Z,44.23
2018-05-03T11:53:51.265Z,44.32
2018-05-03T11:54:51.187Z,44.71
2018-05-03T11:55:51.095Z,44.54
2018-05-03T11:56:51.004Z,44.45
2018-05-03T11:57:50.914Z,44.93
2018-05-03T11:58:50.842Z,43.96
2018-05-03T11:59:50.745Z,44.15
2018-05-03T12:00:50.656Z,44.04
2018-05-03T12:01:50.564Z,43.94
2018-05-03T12:02:50.475Z,44.54
2018-05-03T12:03:50.393Z,44.66
2018-05-03T12:04:50.305Z,44.18
2018-05-03T12:05:50.212Z,44.27
2018-05-03T12:06:50.134Z,44.95
2018-05-03T12:07:50.031Z,43.12
2018-05-03T12:08:49.952Z,43.70
2018-05-03T12:09:49.861Z,44.15
2018-05-03T12:10:49.770Z,43.98
2018-05-03T12:11:49.706Z,43.67
2018-05-03T12:12:49.603Z,44.27
2018-05-03T12:13:49.514Z,45.82
2018-05-03T12:14:49.421Z,45.43
2018-05-03T12:15:49.330Z,44.56
2018-05-03T12:16:49.238Z,43.60
2018-05-03T12:17:49.159Z,43.31
2018-05-03T12:18:49.069Z,43.79
2018-05-03T12:19:48.982Z,44.46
2018-05-03T12:20:48.890Z,44.95
2018-05-03T12:21:48.813Z,44.66
2018-05-03T12:22:48.722Z,43.98
2018-05-03T12:23:48.632Z,44.83
2018-05-03T12:24:48.538Z,44.90
2018-05-03T12:25:48.484Z,44.32
2018-05-03T12:26:48.369Z,45.00
2018-05-03T12:27:48.275Z,45.20
2018-05-03T12:28:48.186Z,45.58
2018-05-03T12:29:48.094Z,45.77
2018-05-03T12:30:48.015Z,45.20
2018-05-03T12:31:47.928Z,44.42
2018-05-03T12:32:47.836Z,44.90
2018-05-03T12:33:47.746Z,45.77
2018-05-03T12:34:47.657Z,44.90
2018-05-03T12:35:47.577Z,44.90
2018-05-03T12:36:47.484Z,44.54
2018-05-03T12:37:47.391Z,44.64
2018-05-03T12:38:47.302Z,44.45
2018-05-03T12:39:47.211Z,45.31
2018-05-03T12:40:47.132Z,43.87
2018-05-03T12:41:47.042Z,44.54
2018-05-03T12:42:46.950Z,43.46
2018-05-03T12:43:46.863Z,43.48
2018-05-03T12:44:46.771Z,43.55
2018-05-03T12:45:46.692Z,44.52
2018-05-03T12:46:46.603Z,44.90
2018-05-03T12:47:46.509Z,46.06
2018-05-03T12:48:46.424Z,46.25
2018-05-03T12:49:46.332Z,46.33
2018-05-03T12:50:46.238Z,44.49
2018-05-03T12:51:46.175Z,45.94